createdAt,value
2019-02-17T00:00:27.915Z,30.81
2019-02-17T00:01:27.894Z,30.81
2019-02-17T00:02:27.913Z,30.91
2019-02-17T00:03:27.872Z,30.81
2019-02-17T00:04:27.872Z,30.91
2019-02-17T00:05:27.894Z,31.01
2019-02-17T00:06:27.838Z,30.81
2019-02-17T00:07:27.826Z,30.51
2019-02-17T00:08:27.818Z,30.41
2019-02-17T00:09:27.808Z,30.11
2019-02-17T00:10:27.801Z,29.71
2019-02-17T00:11:27.801Z,29.61
2019-02-17T00:12:27.778Z,29.91
2019-02-17T00:13:27.767Z,30.31
2019-02-17T00:14:27.749Z,30.81
2019-02-17T00:15:27.749Z,30.61
2019-02-17T00:16:27.726Z,30.91
2019-02-17T00:17:27.724Z,30.73
2019-02-17T00:18:27.711Z,31.01
2019-02-17T00:19:27.714Z,30.61
2019-02-17T00:20:27.700Z,30.61
2019-02-17T00:21:27.697Z,30.61
2019-02-17T00:22:27.669Z,30.61
2019-02-17T00:23:27.650Z,30.41
2019-02-17T00:24:27.638Z,30.51
2019-02-17T00:25:27.676Z,30.81
2019-02-17T00:26:27.617Z,30.81
2019-02-17T00:27:27.751Z,30.83
2019-02-17T00:28:27.592Z,30.81
2019-02-17T00:29:27.618Z,30.61
2019-02-17T00:30:27.581Z,31.01
2019-02-17T00:31:27.560Z,30.73
2019-02-17T00:32:27.549Z,30.73
2019-02-17T00:33:27.542Z,30.43
2019-02-17T00:34:27.553Z,30.73
2019-02-17T00:35:27.529Z,31.12
2019-02-17T00:36:27.511Z,30.83
2019-02-17T00:37:27.530Z,30.71
2019-02-17T00:38:27.482Z,30.61
2019-02-17T00:39:27.473Z,30.81
2019-02-17T00:40:27.504Z,30.71
2019-02-17T00:41:27.463Z,31.03
2019-02-17T00:42:27.439Z,31.03
2019-02-17T00:43:27.506Z,31.23
2019-02-17T00:44:27.456Z,30.61
2019-02-17T00:45:27.407Z,31.01
2019-02-17T00:46:27.406Z,30.91
2019-02-17T00:47:27.383Z,30.83
2019-02-17T00:48:27.397Z,30.73
2019-02-17T00:49:27.377Z,30.93
2019-02-17T00:50:27.362Z,30.83
2019-02-17T00:51:27.364Z,30.73
2019-02-17T00:52:27.346Z,30.73
2019-02-17T00:53:27.318Z,30.73
2019-02-17T00:54:27.327Z,30.93
2019-02-17T00:55:27.301Z,30.73
2019-02-17T00:56:27.293Z,30.61
2019-02-17T00:57:27.339Z,30.52
2019-02-17T00:58:27.261Z,30.12
2019-02-17T00:59:27.255Z,30.32
2019-02-17T01:00:27.257Z,30.01
2019-02-17T01:01:27.263Z,29.50
2019-02-17T01:02:27.224Z,29.31
2019-02-17T01:03:27.215Z,30.41
2019-02-17T01:04:27.204Z,31.12
2019-02-17T01:05:27.188Z,30.81
2019-02-17T01:06:27.190Z,30.31
2019-02-17T01:07:27.194Z,31.03
2019-02-17T01:08:27.171Z,30.32
2019-02-17T01:09:27.154Z,30.51
2019-02-17T01:10:27.138Z,30.81
2019-02-17T01:11:27.243Z,30.22
2019-02-17T01:12:27.157Z,30.32
2019-02-17T01:13:27.115Z,30.63
2019-02-17T01:14:27.097Z,29.82
2019-02-17T01:15:27.100Z,29.81
2019-02-17T01:16:27.100Z,29.93
2019-02-17T01:17:27.064Z,29.61
2019-02-17T01:18:27.045Z,29.61
2019-02-17T01:19:27.066Z,29.31
2019-02-17T01:20:27.027Z,29.93
2019-02-17T01:21:27.035Z,30.32
2019-02-17T01:22:27.007Z,30.22
2019-02-17T01:23:26.995Z,30.32
2019-02-17T01:24:27.016Z,30.83
2019-02-17T01:25:27.015Z,30.73
2019-02-17T01:26:26.991Z,30.73
2019-02-17T01:27:26.986Z,30.83
2019-02-17T01:28:26.934Z,30.73
2019-02-17T01:29:26.928Z,30.73
2019-02-17T01:30:26.913Z,30.63
2019-02-17T01:31:26.923Z,30.73
2019-02-17T01:32:26.924Z,30.83
2019-02-17T01:33:26.882Z,30.63
2019-02-17T01:34:26.869Z,30.73
2019-02-17T01:35:26.856Z,30.43
2019-02-17T01:36:26.862Z,30.73
2019-02-17T01:37:26.856Z,31.03
2019-02-17T01:38:26.840Z,30.43
2019-02-17T01:39:26.898Z,30.83
2019-02-17T01:40:26.806Z,30.64
2019-02-17T01:41:26.793Z,30.43
2019-02-17T01:42:26.830Z,30.63
2019-02-17T01:43:26.768Z,30.73
2019-02-17T01:44:26.757Z,30.83
2019-02-17T01:45:26.758Z,30.63
2019-02-17T01:46:26.738Z,30.64
2019-02-17T01:47:26.750Z,30.93
2019-02-17T01:48:26.717Z,30.93
2019-02-17T01:49:26.701Z,30.73
2019-02-17T01:50:26.707Z,30.73
2019-02-17T01:51:26.679Z,30.22
2019-02-17T01:52:26.684Z,30.52
2019-02-17T01:53:26.655Z,30.12
2019-02-17T01:54:26.651Z,30.12
2019-02-17T01:55:26.634Z,30.32
2019-02-17T01:56:26.627Z,30.73
2019-02-17T01:57:26.738Z,30.52
2019-02-17T01:58:26.600Z,31.03
2019-02-17T01:59:30.586Z,30.93
2019-02-17T02:00:26.578Z,30.93
2019-02-17T02:01:26.568Z,30.83
2019-02-17T02:02:26.563Z,30.73
2019-02-17T02:03:26.551Z,30.63
2019-02-17T02:04:26.566Z,30.64
2019-02-17T02:05:26.525Z,30.83
2019-02-17T02:06:26.517Z,30.73
2019-02-17T02:07:26.511Z,30.73
2019-02-17T02:08:26.487Z,30.32
2019-02-17T02:09:26.484Z,30.02
2019-02-17T02:10:26.526Z,30.22
2019-02-17T02:11:26.461Z,30.32
2019-02-17T02:12:26.458Z,30.52
2019-02-17T02:13:26.434Z,30.43
2019-02-17T02:14:26.436Z,30.32
2019-02-17T02:15:26.428Z,30.34
2019-02-17T02:16:26.400Z,31.03
2019-02-17T02:17:26.429Z,31.04
2019-02-17T02:18:26.377Z,30.43
2019-02-17T02:19:26.378Z,30.73
2019-02-17T02:20:26.355Z,30.83
2019-02-17T02:21:26.345Z,30.83
2019-02-17T02:22:26.340Z,30.63
2019-02-17T02:23:26.337Z,30.52
2019-02-17T02:24:26.311Z,30.73
2019-02-17T02:25:26.303Z,30.94
2019-02-17T02:26:26.293Z,31.24
2019-02-17T02:27:26.364Z,31.33
2019-02-17T02:28:26.270Z,31.24
2019-02-17T02:29:26.288Z,31.14
2019-02-17T02:30:26.260Z,31.14
2019-02-17T02:31:26.270Z,30.64
2019-02-17T02:32:26.249Z,30.94
2019-02-17T02:33:26.214Z,30.94
2019-02-17T02:34:26.204Z,30.44
2019-02-17T02:35:26.214Z,30.44
2019-02-17T02:36:26.180Z,30.94
2019-02-17T02:37:26.196Z,30.63
2019-02-17T02:38:26.169Z,30.43
2019-02-17T02:39:26.163Z,30.73
2019-02-17T02:40:26.162Z,30.44
2019-02-17T02:41:34.177Z,30.02
2019-02-17T02:42:27.135Z,30.43
2019-02-17T02:43:26.104Z,29.93
2019-02-17T02:44:26.113Z,30.22
2019-02-17T02:45:26.115Z,29.72
2019-02-17T02:46:26.067Z,30.32
2019-02-17T02:47:26.065Z,30.02
2019-02-17T02:48:26.057Z,30.64
2019-02-17T02:49:26.046Z,30.63
2019-02-17T02:50:26.028Z,30.84
2019-02-17T02:51:26.075Z,31.04
2019-02-17T02:52:26.005Z,30.73
2019-02-17T02:53:25.998Z,30.73
2019-02-17T02:54:25.975Z,30.74
2019-02-17T02:55:25.976Z,30.83
2019-02-17T02:56:25.955Z,30.73
2019-02-17T02:57:26.061Z,30.63
2019-02-17T02:58:26.012Z,30.63
2019-02-17T02:59:25.935Z,30.64
2019-02-17T03:00:25.909Z,30.22
2019-02-17T03:01:25.931Z,30.12
2019-02-17T03:02:25.895Z,30.63
2019-02-17T03:03:25.944Z,30.63
2019-02-17T03:04:25.865Z,30.74
2019-02-17T03:05:25.852Z,30.12
2019-02-17T03:06:25.866Z,30.73
2019-02-17T03:07:25.844Z,30.73
2019-02-17T03:08:25.834Z,30.63
2019-02-17T03:09:25.831Z,30.64
2019-02-17T03:10:25.801Z,30.83
2019-02-17T03:11:25.793Z,30.94
2019-02-17T03:12:25.775Z,30.64
2019-02-17T03:13:25.777Z,30.63
2019-02-17T03:14:25.755Z,30.73
2019-02-17T03:15:25.743Z,30.84
2019-02-17T03:16:25.742Z,30.93
2019-02-17T03:17:25.783Z,30.74
2019-02-17T03:18:25.721Z,30.63
2019-02-17T03:19:25.729Z,30.34
2019-02-17T03:20:25.688Z,30.93
2019-02-17T03:21:25.675Z,30.83
2019-02-17T03:22:25.684Z,30.63
2019-02-17T03:23:25.699Z,30.74
2019-02-17T03:24:25.677Z,30.63
2019-02-17T03:25:25.632Z,30.64
2019-02-17T03:26:25.635Z,30.83
2019-02-17T03:27:25.641Z,30.83
2019-02-17T03:28:25.628Z,30.63
2019-02-17T03:29:25.587Z,30.84
2019-02-17T03:30:25.592Z,30.84
2019-02-17T03:31:25.568Z,30.84
2019-02-17T03:32:25.572Z,30.44
2019-02-17T03:33:25.561Z,31.03
2019-02-17T03:34:25.577Z,30.44
2019-02-17T03:35:25.521Z,30.63
2019-02-17T03:36:25.541Z,30.73
2019-02-17T03:37:25.512Z,30.63
2019-02-17T03:38:25.513Z,30.83
2019-02-17T03:39:25.541Z,30.84
2019-02-17T03:40:25.468Z,30.84
2019-02-17T03:41:25.456Z,30.34
2019-02-17T03:42:25.463Z,30.44
2019-02-17T03:43:25.435Z,30.54
2019-02-17T03:44:25.460Z,30.74
2019-02-17T03:45:25.433Z,31.04
2019-02-17T03:46:25.400Z,30.54
2019-02-17T03:47:25.400Z,30.74
2019-02-17T03:48:25.408Z,30.74
2019-02-17T03:49:25.418Z,30.74
2019-02-17T03:50:25.389Z,30.44
2019-02-17T03:51:25.392Z,30.94
2019-02-17T03:52:25.365Z,30.64
2019-02-17T03:53:25.389Z,30.64
2019-02-17T03:54:25.322Z,30.94
2019-02-17T03:55:25.299Z,30.64
2019-02-17T03:56:25.295Z,30.64
2019-02-17T03:57:25.413Z,31.04
2019-02-17T03:58:25.277Z,30.44
2019-02-17T03:59:25.271Z,30.64
2019-02-17T04:00:25.257Z,30.94
2019-02-17T04:01:25.235Z,30.34
2019-02-17T04:02:25.250Z,30.64
2019-02-17T04:03:25.214Z,30.74
2019-02-17T04:04:25.231Z,30.64
2019-02-17T04:05:25.189Z,30.44
2019-02-17T04:06:25.179Z,30.94
2019-02-17T04:07:25.200Z,30.54
2019-02-17T04:08:25.221Z,30.94
2019-02-17T04:09:25.187Z,30.74
2019-02-17T04:10:25.139Z,30.74
2019-02-17T04:11:25.132Z,30.84
2019-02-17T04:12:25.111Z,30.84
2019-02-17T04:13:25.119Z,30.44
2019-02-17T04:14:25.116Z,30.94
2019-02-17T04:15:25.078Z,30.64
2019-02-17T04:16:25.064Z,30.54
2019-02-17T04:17:25.055Z,30.84
2019-02-17T04:18:25.052Z,30.94
2019-02-17T04:19:25.183Z,30.64
2019-02-17T04:20:25.025Z,30.54
2019-02-17T04:21:25.012Z,30.74
2019-02-17T04:22:25.004Z,30.84
2019-02-17T04:23:31.319Z,30.94
2019-02-17T04:24:26.010Z,30.54
2019-02-17T04:25:24.974Z,30.84
2019-02-17T04:26:24.955Z,30.84
2019-02-17T04:27:25.032Z,30.84
2019-02-17T04:28:24.941Z,31.04
2019-02-17T04:29:24.931Z,31.05
2019-02-17T04:30:29.334Z,31.34
2019-02-17T04:31:24.900Z,31.24
2019-02-17T04:32:24.890Z,31.16
2019-02-17T04:33:24.878Z,31.26
2019-02-17T04:34:24.875Z,31.36
2019-02-17T04:35:24.858Z,31.16
2019-02-17T04:36:24.877Z,31.26
2019-02-17T04:37:24.885Z,31.24
2019-02-17T04:38:24.844Z,31.26
2019-02-17T04:39:24.827Z,31.04
2019-02-17T04:40:24.823Z,30.84
2019-02-17T04:41:24.796Z,30.84
2019-02-17T04:42:24.821Z,30.74
2019-02-17T04:43:24.784Z,30.64
2019-02-17T04:44:24.769Z,30.64
2019-02-17T04:45:24.769Z,30.54
2019-02-17T04:46:24.761Z,30.64
2019-02-17T04:47:24.750Z,30.64
2019-02-17T04:48:24.731Z,30.84
2019-02-17T04:49:24.768Z,30.84
2019-02-17T04:50:24.697Z,31.14
2019-02-17T04:51:24.677Z,30.84
2019-02-17T04:52:24.704Z,31.46
2019-02-17T04:53:24.698Z,31.24
2019-02-17T04:54:24.661Z,31.36
2019-02-17T04:55:24.640Z,30.84
2019-02-17T04:56:24.621Z,31.14
2019-02-17T04:57:24.668Z,31.45
2019-02-17T04:58:24.608Z,30.94
2019-02-17T04:59:24.600Z,30.84
2019-02-17T05:00:24.609Z,30.96
2019-02-17T05:01:24.568Z,30.94
2019-02-17T05:02:24.563Z,31.04
2019-02-17T05:03:24.553Z,30.96
2019-02-17T05:04:24.553Z,30.64
2019-02-17T05:05:24.541Z,30.84
2019-02-17T05:06:24.541Z,30.74
2019-02-17T05:07:24.501Z,30.94
2019-02-17T05:08:24.491Z,30.54
2019-02-17T05:09:24.486Z,31.04
2019-02-17T05:10:24.484Z,30.64
2019-02-17T05:11:24.456Z,30.54
2019-02-17T05:12:24.465Z,30.64
2019-02-17T05:13:24.466Z,30.96
2019-02-17T05:14:24.436Z,30.74
2019-02-17T05:15:24.421Z,30.54
2019-02-17T05:16:24.406Z,30.94
2019-02-17T05:17:24.391Z,30.54
2019-02-17T05:18:24.415Z,30.54
2019-02-17T05:19:24.367Z,30.74
2019-02-17T05:20:24.394Z,30.64
2019-02-17T05:21:24.353Z,30.85
2019-02-17T05:22:24.335Z,30.96
2019-02-17T05:23:24.324Z,30.96
2019-02-17T05:24:24.316Z,31.14
2019-02-17T05:25:24.308Z,31.16
2019-02-17T05:26:24.311Z,31.26
2019-02-17T05:27:24.312Z,31.26
2019-02-17T05:28:24.269Z,31.46
2019-02-17T05:29:24.255Z,31.26
2019-02-17T05:30:24.255Z,31.36
2019-02-17T05:31:24.249Z,31.16
2019-02-17T05:32:24.236Z,31.14
2019-02-17T05:33:24.260Z,30.85
2019-02-17T05:34:24.205Z,30.74
2019-02-17T05:35:24.217Z,30.64
2019-02-17T05:36:24.178Z,31.16
2019-02-17T05:37:24.184Z,31.45
2019-02-17T05:38:24.178Z,31.05
2019-02-17T05:39:24.145Z,31.36
2019-02-17T05:40:24.155Z,31.26
2019-02-17T05:41:24.133Z,31.26
2019-02-17T05:42:24.131Z,31.26
2019-02-17T05:43:24.141Z,31.36
2019-02-17T05:44:24.116Z,31.26
2019-02-17T05:45:24.088Z,31.16
2019-02-17T05:46:24.068Z,31.26
2019-02-17T05:47:24.083Z,31.26
2019-02-17T05:48:24.045Z,31.36
2019-02-17T05:49:24.048Z,31.26
2019-02-17T05:50:24.046Z,31.24
2019-02-17T05:51:24.010Z,31.26
2019-02-17T05:52:24.001Z,31.24
2019-02-17T05:53:24.000Z,31.14
2019-02-17T05:54:23.984Z,31.36
2019-02-17T05:55:23.989Z,31.05
2019-02-17T05:56:23.968Z,30.96
2019-02-17T05:57:24.100Z,30.94
2019-02-17T05:58:23.971Z,30.94
2019-02-17T05:59:23.933Z,31.05
2019-02-17T06:00:23.912Z,31.05
2019-02-17T06:01:23.933Z,30.85
2019-02-17T06:02:23.938Z,31.04
2019-02-17T06:03:23.879Z,31.46
2019-02-17T06:04:23.872Z,31.26
2019-02-17T06:05:23.856Z,31.26
2019-02-17T06:06:23.859Z,31.46
2019-02-17T06:07:23.843Z,31.16
2019-02-17T06:08:23.857Z,30.85
2019-02-17T06:09:23.862Z,30.76
2019-02-17T06:10:23.801Z,30.65
2019-02-17T06:11:23.804Z,30.85
2019-02-17T06:12:23.779Z,30.85
2019-02-17T06:13:23.770Z,31.16
2019-02-17T06:14:23.764Z,31.16
2019-02-17T06:15:23.751Z,31.26
2019-02-17T06:16:23.755Z,31.16
2019-02-17T06:17:23.725Z,31.26
2019-02-17T06:18:23.733Z,31.26
2019-02-17T06:19:23.750Z,31.26
2019-02-17T06:20:23.703Z,30.85
2019-02-17T06:21:23.697Z,31.26
2019-02-17T06:22:23.669Z,31.36
2019-02-17T06:23:23.674Z,31.16
2019-02-17T06:24:23.699Z,31.16
2019-02-17T06:25:23.661Z,31.05
2019-02-17T06:26:23.660Z,31.17
2019-02-17T06:27:23.638Z,31.05
2019-02-17T06:28:23.627Z,30.96
2019-02-17T06:29:23.612Z,30.76
2019-02-17T06:30:23.581Z,30.96
2019-02-17T06:31:23.603Z,30.96
2019-02-17T06:32:23.594Z,30.65
2019-02-17T06:33:23.554Z,30.96
2019-02-17T06:34:23.538Z,30.97
2019-02-17T06:35:23.549Z,30.97
2019-02-17T06:36:23.549Z,30.85
2019-02-17T06:37:23.538Z,30.87
2019-02-17T06:38:23.490Z,31.36
2019-02-17T06:39:23.496Z,31.26
2019-02-17T06:40:23.501Z,31.36
2019-02-17T06:41:23.465Z,30.76
2019-02-17T06:42:23.449Z,31.36
2019-02-17T06:43:23.438Z,31.16
2019-02-17T06:44:23.435Z,31.14
2019-02-17T06:45:23.434Z,31.36
2019-02-17T06:46:23.438Z,31.26
2019-02-17T06:47:23.390Z,31.16
2019-02-17T06:48:23.384Z,30.85
2019-02-17T06:49:23.377Z,30.76
2019-02-17T06:50:23.357Z,30.64
2019-02-17T06:51:23.359Z,30.84
2019-02-17T06:52:23.345Z,30.94
2019-02-17T06:53:23.323Z,31.26
2019-02-17T06:54:23.319Z,31.05
2019-02-17T06:55:23.305Z,30.85
2019-02-17T06:56:23.292Z,30.96
2019-02-17T06:57:23.350Z,30.96
2019-02-17T06:58:23.293Z,31.26
2019-02-17T06:59:23.265Z,31.05
2019-02-17T07:00:23.252Z,30.85
2019-02-17T07:01:24.902Z,30.85
2019-02-17T07:02:23.240Z,31.16
2019-02-17T07:03:23.262Z,31.26
2019-02-17T07:04:23.286Z,31.36
2019-02-17T07:05:23.221Z,31.26
2019-02-17T07:06:23.203Z,31.36
2019-02-17T07:07:23.186Z,31.26
2019-02-17T07:08:23.183Z,31.26
2019-02-17T07:09:23.160Z,30.77
2019-02-17T07:10:23.163Z,30.85
2019-02-17T07:11:23.526Z,30.96
2019-02-17T07:12:23.145Z,30.76
2019-02-17T07:13:23.117Z,31.26
2019-02-17T07:14:23.112Z,31.16
2019-02-17T07:15:23.098Z,31.36
2019-02-17T07:16:23.075Z,30.96
2019-02-17T07:17:23.094Z,31.56
2019-02-17T07:18:23.173Z,30.85
2019-02-17T07:19:23.120Z,31.16
2019-02-17T07:20:23.029Z,31.14
2019-02-17T07:21:23.032Z,31.36
2019-02-17T07:22:23.065Z,31.16
2019-02-17T07:23:22.993Z,31.36
2019-02-17T07:24:22.981Z,31.26
2019-02-17T07:25:29.679Z,31.16
2019-02-17T07:26:23.989Z,31.46
2019-02-17T07:27:23.113Z,31.26
2019-02-17T07:28:22.943Z,31.26
2019-02-17T07:29:22.934Z,31.26
2019-02-17T07:30:22.915Z,31.05
2019-02-17T07:31:22.948Z,31.05
2019-02-17T07:32:22.910Z,30.85
2019-02-17T07:33:22.881Z,30.55
2019-02-17T07:34:22.873Z,30.74
2019-02-17T07:35:22.864Z,30.44
2019-02-17T07:36:22.847Z,30.94
2019-02-17T07:37:32.793Z,30.44
2019-02-17T07:38:23.831Z,30.84
2019-02-17T07:39:22.851Z,30.64
2019-02-17T07:40:22.804Z,30.64
2019-02-17T07:41:22.801Z,30.84
2019-02-17T07:42:22.844Z,30.83
2019-02-17T07:43:22.844Z,30.84
2019-02-17T07:44:22.759Z,31.04
2019-02-17T07:45:22.766Z,30.84
2019-02-17T07:46:22.744Z,30.84
2019-02-17T07:47:22.730Z,30.84
2019-02-17T07:48:22.745Z,30.65
2019-02-17T07:49:22.720Z,30.84
2019-02-17T07:50:22.697Z,30.64
2019-02-17T07:51:22.700Z,30.74
2019-02-17T07:52:22.673Z,30.74
2019-02-17T07:53:22.670Z,30.74
2019-02-17T07:54:22.648Z,30.74
2019-02-17T07:55:22.650Z,30.94
2019-02-17T07:56:22.639Z,30.94
2019-02-17T07:57:22.753Z,30.44
2019-02-17T07:58:22.629Z,30.84
2019-02-17T07:59:22.596Z,30.74
2019-02-17T08:00:22.594Z,30.74
2019-02-17T08:01:22.577Z,31.14
2019-02-17T08:02:22.574Z,30.85
2019-02-17T08:03:22.586Z,30.76
2019-02-17T08:04:22.540Z,30.84
2019-02-17T08:05:22.526Z,30.44
2019-02-17T08:06:22.515Z,30.64
2019-02-17T08:07:22.515Z,30.64
2019-02-17T08:08:22.507Z,30.94
2019-02-17T08:09:22.500Z,30.74
2019-02-17T08:10:22.482Z,30.64
2019-02-17T08:11:22.465Z,30.94
2019-02-17T08:12:22.454Z,30.74
2019-02-17T08:13:22.457Z,30.54
2019-02-17T08:14:22.425Z,30.74
2019-02-17T08:15:22.454Z,30.94
2019-02-17T08:16:22.425Z,30.74
2019-02-17T08:17:22.401Z,30.74
2019-02-17T08:18:22.394Z,30.74
2019-02-17T08:19:22.374Z,30.64
2019-02-17T08:20:22.361Z,30.64
2019-02-17T08:21:22.352Z,30.64
2019-02-17T08:22:22.363Z,30.74
2019-02-17T08:23:22.355Z,30.64
2019-02-17T08:24:22.317Z,30.83
2019-02-17T08:25:22.365Z,30.73
2019-02-17T08:26:22.380Z,30.94
2019-02-17T08:27:22.355Z,31.14
2019-02-17T08:28:22.312Z,30.34
2019-02-17T08:29:22.263Z,30.84
2019-02-17T08:30:22.275Z,31.14
2019-02-17T08:31:22.248Z,30.74
2019-02-17T08:32:22.290Z,30.73
2019-02-17T08:33:22.242Z,30.43
2019-02-17T08:34:22.208Z,30.44
2019-02-17T08:35:22.199Z,30.63
2019-02-17T08:36:22.206Z,30.04
2019-02-17T08:37:22.210Z,30.14
2019-02-17T08:38:22.172Z,29.83
2019-02-17T08:39:22.196Z,29.62
2019-02-17T08:40:22.149Z,29.74
2019-02-17T08:41:22.140Z,29.52
2019-02-17T08:42:22.122Z,29.52
2019-02-17T08:43:22.109Z,29.62
2019-02-17T08:44:22.142Z,29.52
2019-02-17T08:45:22.109Z,29.42
2019-02-17T08:46:22.085Z,29.82
2019-02-17T08:47:22.088Z,29.72
2019-02-17T08:48:22.062Z,29.82
2019-02-17T08:49:22.066Z,29.62
2019-02-17T08:50:22.033Z,29.52
2019-02-17T08:51:22.016Z,29.62
2019-02-17T08:52:22.037Z,29.62
2019-02-17T08:53:22.022Z,29.53
2019-02-17T08:54:21.999Z,29.72
2019-02-17T08:55:21.981Z,29.93
2019-02-17T08:56:21.973Z,29.74
2019-02-17T08:57:22.005Z,30.12
2019-02-17T08:58:22.005Z,29.62
2019-02-17T08:59:21.949Z,29.72
2019-02-17T09:00:21.925Z,29.52
2019-02-17T09:01:21.923Z,29.93
2019-02-17T09:02:21.917Z,29.93
2019-02-17T09:03:21.897Z,29.62
2019-02-17T09:04:21.997Z,29.72
2019-02-17T09:05:21.914Z,29.42
2019-02-17T09:06:21.873Z,29.52
2019-02-17T09:07:21.864Z,29.52
2019-02-17T09:08:21.829Z,29.62
2019-02-17T09:09:21.836Z,29.93
2019-02-17T09:10:21.815Z,29.93
2019-02-17T09:11:21.803Z,29.93
2019-02-17T09:12:21.786Z,29.72
2019-02-17T09:13:21.822Z,29.52
2019-02-17T09:14:21.793Z,29.93
2019-02-17T09:15:21.814Z,29.82
2019-02-17T09:16:21.812Z,29.82
2019-02-17T09:17:21.740Z,29.52
2019-02-17T09:18:21.755Z,29.42
2019-02-17T09:19:21.729Z,29.41
2019-02-17T09:20:21.724Z,29.52
2019-02-17T09:21:21.707Z,29.50
2019-02-17T09:22:21.672Z,29.61
2019-02-17T09:23:21.693Z,29.50
2019-02-17T09:24:21.660Z,29.91
2019-02-17T09:25:21.661Z,29.71
2019-02-17T09:26:21.643Z,29.91
2019-02-17T09:27:21.666Z,29.91
2019-02-17T09:28:21.609Z,29.91
2019-02-17T09:29:21.611Z,29.91
2019-02-17T09:30:21.597Z,29.41
2019-02-17T09:31:21.576Z,29.81
2019-02-17T09:32:21.584Z,29.61
2019-02-17T09:33:21.553Z,30.11
2019-02-17T09:34:21.572Z,29.81
2019-02-17T09:35:21.529Z,29.61
2019-02-17T09:36:21.520Z,29.91
2019-02-17T09:37:21.533Z,30.21
2019-02-17T09:38:21.543Z,29.61
2019-02-17T09:39:21.591Z,30.21
2019-02-17T09:40:21.479Z,29.81
2019-02-17T09:41:21.462Z,29.81
2019-02-17T09:42:21.461Z,29.91
2019-02-17T09:43:21.449Z,29.91
2019-02-17T09:44:21.465Z,30.11
2019-02-17T09:45:21.417Z,29.61
2019-02-17T09:46:21.404Z,30.21
2019-02-17T09:47:21.398Z,29.81
2019-02-17T09:48:21.389Z,29.71
2019-02-17T09:49:21.389Z,29.71
2019-02-17T09:50:21.362Z,30.11
2019-02-17T09:51:21.354Z,29.81
2019-02-17T09:52:21.364Z,29.61
2019-02-17T09:53:21.329Z,29.50
2019-02-17T09:54:21.344Z,29.11
2019-02-17T09:55:21.308Z,29.31
2019-02-17T09:56:21.309Z,29.60
2019-02-17T09:57:26.196Z,29.79
2019-02-17T09:58:21.296Z,29.50
2019-02-17T09:59:21.263Z,29.61
2019-02-17T10:00:21.259Z,29.60
2019-02-17T10:01:21.242Z,30.41
2019-02-17T10:02:26.449Z,30.11
2019-02-17T10:03:22.230Z,29.61
2019-02-17T10:04:21.232Z,30.21
2019-02-17T10:05:21.213Z,30.01
2019-02-17T10:06:21.181Z,29.81
2019-02-17T10:07:21.174Z,29.61
2019-02-17T10:08:21.168Z,29.61
2019-02-17T10:09:21.152Z,29.49
2019-02-17T10:10:21.227Z,29.09
2019-02-17T10:11:21.133Z,29.49
2019-02-17T10:12:21.116Z,29.60
2019-02-17T10:13:21.116Z,29.60
2019-02-17T10:14:21.100Z,29.31
2019-02-17T10:15:21.093Z,28.99
2019-02-17T10:16:21.089Z,29.49
2019-02-17T10:17:21.074Z,29.49
2019-02-17T10:18:21.057Z,29.49
2019-02-17T10:19:21.042Z,29.29
2019-02-17T10:20:21.043Z,29.49
2019-02-17T10:21:21.017Z,29.49
2019-02-17T10:22:21.023Z,29.50
2019-02-17T10:23:21.004Z,29.49
2019-02-17T10:24:20.983Z,29.19
2019-02-17T10:25:20.983Z,29.29
2019-02-17T10:26:20.965Z,29.29
2019-02-17T10:27:21.025Z,29.19
2019-02-17T10:28:20.951Z,29.69
2019-02-17T10:29:20.981Z,29.69
2019-02-17T10:30:20.935Z,29.81
2019-02-17T10:31:20.908Z,29.69
2019-02-17T10:32:20.900Z,29.79
2019-02-17T10:33:20.893Z,29.60
2019-02-17T10:34:20.881Z,29.60
2019-02-17T10:35:20.888Z,29.81
2019-02-17T10:36:20.865Z,29.49
2019-02-17T10:37:20.860Z,29.39
2019-02-17T10:38:20.858Z,29.29
2019-02-17T10:39:20.833Z,29.09
2019-02-17T10:40:20.870Z,29.09
2019-02-17T10:41:20.827Z,29.09
2019-02-17T10:42:20.831Z,29.49
2019-02-17T10:43:20.834Z,29.39
2019-02-17T10:44:20.785Z,29.18
2019-02-17T10:45:20.820Z,29.28
2019-02-17T10:46:20.745Z,29.08
2019-02-17T10:47:20.736Z,29.18
2019-02-17T10:48:20.734Z,28.88
2019-02-17T10:49:20.733Z,29.68
2019-02-17T10:50:20.700Z,28.98
2019-02-17T10:51:20.726Z,29.58
2019-02-17T10:52:20.674Z,29.18
2019-02-17T10:53:20.679Z,29.38
2019-02-17T10:54:22.937Z,29.48
2019-02-17T10:55:20.657Z,29.38
2019-02-17T10:56:20.638Z,29.48
2019-02-17T10:57:20.625Z,29.38
2019-02-17T10:58:20.634Z,29.38
2019-02-17T10:59:20.599Z,29.38
2019-02-17T11:00:20.591Z,29.38
2019-02-17T11:01:20.590Z,29.48
2019-02-17T11:02:20.566Z,29.28
2019-02-17T11:03:20.567Z,29.48
2019-02-17T11:04:20.579Z,29.49
2019-02-17T11:05:20.534Z,29.48
2019-02-17T11:06:20.550Z,29.08
2019-02-17T11:07:20.526Z,29.08
2019-02-17T11:08:20.498Z,29.48
2019-02-17T11:09:20.485Z,29.08
2019-02-17T11:10:20.507Z,28.88
2019-02-17T11:11:20.505Z,29.28
2019-02-17T11:12:20.456Z,29.18
2019-02-17T11:13:20.444Z,29.08
2019-02-17T11:14:20.434Z,29.18
2019-02-17T11:15:20.425Z,29.48
2019-02-17T11:16:20.440Z,29.18
2019-02-17T11:17:20.398Z,29.16
2019-02-17T11:18:20.442Z,29.08
2019-02-17T11:19:20.377Z,28.96
2019-02-17T11:20:20.374Z,28.77
2019-02-17T11:21:20.361Z,29.38
2019-02-17T11:22:23.208Z,28.86
2019-02-17T11:23:20.371Z,28.86
2019-02-17T11:24:20.326Z,28.96
2019-02-17T11:25:20.307Z,28.98
2019-02-17T11:26:20.306Z,28.88
2019-02-17T11:27:20.298Z,28.98
2019-02-17T11:28:20.275Z,29.38
2019-02-17T11:29:20.299Z,29.36
2019-02-17T11:30:20.252Z,28.66
2019-02-17T11:31:20.248Z,28.98
2019-02-17T11:32:20.232Z,29.08
2019-02-17T11:33:20.284Z,29.06
2019-02-17T11:34:20.216Z,28.96
2019-02-17T11:35:20.221Z,29.47
2019-02-17T11:36:20.304Z,28.86
2019-02-17T11:37:20.176Z,28.86
2019-02-17T11:38:20.200Z,29.36
2019-02-17T11:39:20.164Z,28.96
2019-02-17T11:40:20.143Z,28.56
2019-02-17T11:41:20.140Z,29.06
2019-02-17T11:42:20.123Z,29.58
2019-02-17T11:43:20.134Z,28.46
2019-02-17T11:44:20.112Z,28.66
2019-02-17T11:45:20.097Z,28.77
2019-02-17T11:46:20.096Z,29.06
2019-02-17T11:47:20.067Z,28.86
2019-02-17T11:48:20.055Z,28.96
2019-02-17T11:49:20.065Z,28.77
2019-02-17T11:50:20.047Z,28.96
2019-02-17T11:51:20.037Z,28.96
2019-02-17T11:52:20.014Z,28.86
2019-02-17T11:53:20.006Z,29.27
2019-02-17T11:54:19.993Z,28.66
2019-02-17T11:55:19.977Z,29.16
2019-02-17T11:56:19.992Z,29.27
2019-02-17T11:57:20.049Z,28.86
2019-02-17T11:58:19.999Z,28.96
2019-02-17T11:59:19.931Z,28.86
2019-02-17T12:00:20.021Z,28.77
2019-02-17T12:01:19.927Z,29.06
2019-02-17T12:02:25.107Z,28.86
2019-02-17T12:03:20.912Z,28.66
2019-02-17T12:04:19.875Z,28.96
2019-02-17T12:05:19.874Z,28.77
2019-02-17T12:06:19.893Z,28.66
2019-02-17T12:07:19.842Z,28.56
2019-02-17T12:08:19.834Z,28.46
2019-02-17T12:09:19.885Z,29.06
2019-02-17T12:10:19.808Z,28.56
2019-02-17T12:11:19.864Z,29.16
2019-02-17T12:12:19.836Z,28.86
2019-02-17T12:13:19.778Z,28.86
2019-02-17T12:14:19.789Z,28.95
2019-02-17T12:15:19.764Z,28.85
2019-02-17T12:16:19.783Z,28.86
2019-02-17T12:17:19.753Z,28.75
2019-02-17T12:18:19.727Z,28.75
2019-02-17T12:19:19.710Z,29.05
2019-02-17T12:20:19.702Z,28.56
2019-02-17T12:21:19.702Z,28.56
2019-02-17T12:22:19.717Z,28.77
2019-02-17T12:23:19.666Z,28.56
2019-02-17T12:24:19.655Z,28.77
2019-02-17T12:25:19.643Z,28.36
2019-02-17T12:26:19.637Z,28.56
2019-02-17T12:27:19.700Z,28.56
2019-02-17T12:28:19.650Z,28.46
2019-02-17T12:29:19.627Z,28.46
2019-02-17T12:30:19.616Z,28.56
2019-02-17T12:31:19.579Z,28.56
2019-02-17T12:32:19.578Z,28.66
2019-02-17T12:33:21.800Z,28.56
2019-02-17T12:34:19.551Z,28.55
2019-02-17T12:35:19.568Z,28.66
2019-02-17T12:36:19.620Z,28.46
2019-02-17T12:37:19.552Z,28.75
2019-02-17T12:38:19.500Z,28.77
2019-02-17T12:39:19.491Z,29.16
2019-02-17T12:40:19.478Z,28.95
2019-02-17T12:41:19.478Z,28.85
2019-02-17T12:42:19.467Z,29.05
2019-02-17T12:43:19.491Z,28.77
2019-02-17T12:44:19.451Z,29.15
2019-02-17T12:45:19.513Z,28.86
2019-02-17T12:46:19.420Z,28.85
2019-02-17T12:47:20.165Z,28.95
2019-02-17T12:48:19.395Z,28.85
2019-02-17T12:49:19.688Z,29.15
2019-02-17T12:50:19.416Z,28.85
2019-02-17T12:51:19.371Z,28.95
2019-02-17T12:52:19.364Z,28.75